createdAt,value
2019-04-06T00:00:21.809Z,0.00
2019-04-06T00:01:21.986Z,0.00
2019-04-06T00:02:22.192Z,0.00
2019-04-06T00:03:22.378Z,0.00
2019-04-06T00:04:22.574Z,0.00
2019-04-06T00:05:22.759Z,0.00
2019-04-06T00:06:22.945Z,0.00
2019-04-06T00:07:23.126Z,0.00
2019-04-06T00:08:23.319Z,0.00
2019-04-06T00:09:23.492Z,0.00
2019-04-06T00:10:23.674Z,0.00
2019-04-06T00:11:23.855Z,0.00
2019-04-06T00:12:24.041Z,0.00
2019-04-06T00:13:24.229Z,0.00
2019-04-06T00:14:24.405Z,0.00
2019-04-06T00:15:24.596Z,0.00
2019-04-06T00:16:24.801Z,0.00
2019-04-06T00:17:24.961Z,0.00
2019-04-06T00:18:25.148Z,0.00
2019-04-06T00:19:25.328Z,0.00
2019-04-06T00:20:25.529Z,0.00
2019-04-06T00:21:25.703Z,0.00
2019-04-06T00:22:25.890Z,0.00
2019-04-06T00:23:26.069Z,0.00
2019-04-06T00:24:26.267Z,0.00
2019-04-06T00:25:26.468Z,0.00
2019-04-06T00:26:26.646Z,0.00
2019-04-06T00:27:26.827Z,0.00
2019-04-06T00:28:27.058Z,0.00
2019-04-06T00:29:27.194Z,0.00
2019-04-06T00:30:27.382Z,0.00
2019-04-06T00:31:27.563Z,0.00
2019-04-06T00:32:27.752Z,0.00
2019-04-06T00:33:27.934Z,0.00
2019-04-06T00:34:28.116Z,0.00
2019-04-06T00:35:28.295Z,0.00
2019-04-06T00:36:28.487Z,0.00
2019-04-06T00:37:28.677Z,0.00
2019-04-06T00:38:28.861Z,0.00
2019-04-06T00:39:29.045Z,0.00
2019-04-06T00:40:29.230Z,0.00
2019-04-06T00:41:29.415Z,0.00
2019-04-06T00:42:29.597Z,0.00
2019-04-06T00:43:29.780Z,0.00
2019-04-06T00:44:29.963Z,0.00
2019-04-06T00:45:30.158Z,0.00
2019-04-06T00:46:30.333Z,0.00
2019-04-06T00:47:30.514Z,0.00
2019-04-06T00:48:30.712Z,0.00
2019-04-06T00:49:30.881Z,0.00
2019-04-06T00:50:31.077Z,0.00
2019-04-06T00:51:31.255Z,0.00
2019-04-06T00:52:31.436Z,0.00
2019-04-06T00:53:31.618Z,0.00
2019-04-06T00:54:31.814Z,0.00
2019-04-06T00:55:31.982Z,0.00
2019-04-06T00:56:32.175Z,0.00
2019-04-06T00:57:32.371Z,0.00
2019-04-06T00:58:32.557Z,0.00
2019-04-06T00:59:32.733Z,0.00
2019-04-06T01:00:32.920Z,0.00
2019-04-06T01:01:33.094Z,0.00
2019-04-06T01:02:33.279Z,0.00
2019-04-06T01:03:33.466Z,0.00
2019-04-06T01:04:33.648Z,0.00
2019-04-06T01:05:33.854Z,0.00
2019-04-06T01:06:34.031Z,0.00
2019-04-06T01:07:34.201Z,0.00
2019-04-06T01:08:34.390Z,0.00
2019-04-06T01:09:34.565Z,0.00
2019-04-06T01:10:34.750Z,0.00
2019-04-06T01:11:34.942Z,0.00
2019-04-06T01:12:35.118Z,0.00
2019-04-06T01:13:35.345Z,0.00
2019-04-06T01:14:35.496Z,0.00
2019-04-06T01:15:35.685Z,0.00
2019-04-06T01:16:35.866Z,0.00
2019-04-06T01:17:36.047Z,0.00
2019-04-06T01:18:36.233Z,0.00
2019-04-06T01:19:36.441Z,0.00
2019-04-06T01:20:36.626Z,0.00
2019-04-06T01:21:36.808Z,0.00
2019-04-06T01:22:36.987Z,0.00
2019-04-06T01:23:37.184Z,0.00
2019-04-06T01:24:37.367Z,0.00
2019-04-06T01:25:37.551Z,0.00
2019-04-06T01:26:37.745Z,0.00
2019-04-06T01:27:37.928Z,0.00
2019-04-06T01:28:38.114Z,0.00
2019-04-06T01:29:38.296Z,0.00
2019-04-06T01:30:38.565Z,0.00
2019-04-06T01:31:38.679Z,0.00
2019-04-06T01:32:38.847Z,0.00
2019-04-06T01:33:39.080Z,0.00
2019-04-06T01:34:39.218Z,0.00
2019-04-06T01:35:39.402Z,0.00
2019-04-06T01:36:39.597Z,0.00
2019-04-06T01:37:39.778Z,0.00
2019-04-06T01:38:39.967Z,0.00
2019-04-06T01:39:40.153Z,0.00
2019-04-06T01:40:40.336Z,0.00
2019-04-06T01:41:40.528Z,0.00
2019-04-06T01:42:40.709Z,0.00
2019-04-06T01:43:40.894Z,0.00
2019-04-06T01:44:41.081Z,0.00
2019-04-06T01:45:41.261Z,0.00
2019-04-06T01:46:41.453Z,0.00
2019-04-06T01:47:41.629Z,0.00
2019-04-06T01:48:41.840Z,0.00
2019-04-06T01:49:41.998Z,0.00
2019-04-06T01:50:42.187Z,0.00
2019-04-06T01:51:42.365Z,0.00
2019-04-06T01:52:42.557Z,0.00
2019-04-06T01:53:42.738Z,0.00
2019-04-06T01:54:42.918Z,0.00
2019-04-06T01:55:43.210Z,0.00
2019-04-06T01:56:43.293Z,0.00
2019-04-06T01:57:43.476Z,0.00
2019-04-06T01:58:43.661Z,0.00
2019-04-06T01:59:43.975Z,0.00
2019-04-06T02:00:44.033Z,0.00
2019-04-06T02:01:44.217Z,0.00
2019-04-06T02:02:44.402Z,0.00
2019-04-06T02:03:44.585Z,0.00
2019-04-06T02:04:44.770Z,0.00
2019-04-06T02:05:44.948Z,0.00
2019-04-06T02:06:45.131Z,0.00
2019-04-06T02:07:45.316Z,0.00
2019-04-06T02:08:45.514Z,0.00
2019-04-06T02:09:45.694Z,0.00
2019-04-06T02:10:45.881Z,0.00
2019-04-06T02:11:46.087Z,0.00
2019-04-06T02:12:46.248Z,0.00
2019-04-06T02:13:46.472Z,0.00
2019-04-06T02:14:46.614Z,0.00
2019-04-06T02:15:46.806Z,0.00
2019-04-06T02:16:46.990Z,0.00
2019-04-06T02:17:47.224Z,0.00
2019-04-06T02:18:47.359Z,0.00
2019-04-06T02:19:47.586Z,0.00
2019-04-06T02:20:47.739Z,0.00
2019-04-06T02:21:47.916Z,0.00
2019-04-06T02:22:48.104Z,0.00
2019-04-06T02:23:48.282Z,0.00
2019-04-06T02:24:48.463Z,0.00
2019-04-06T02:25:48.649Z,0.00
2019-04-06T02:26:48.831Z,0.00
2019-04-06T02:27:49.014Z,0.00
2019-04-06T02:28:49.202Z,0.00
2019-04-06T02:29:49.387Z,0.00
2019-04-06T02:30:49.570Z,0.00
2019-04-06T02:31:49.782Z,0.00
2019-04-06T02:32:49.943Z,0.00
2019-04-06T02:33:50.127Z,0.00
2019-04-06T02:34:50.365Z,0.00
2019-04-06T02:35:50.501Z,0.00
2019-04-06T02:36:50.679Z,0.00
2019-04-06T02:37:50.867Z,0.00
2019-04-06T02:38:51.039Z,0.00
2019-04-06T02:39:51.219Z,0.00
2019-04-06T02:40:51.407Z,0.00
2019-04-06T02:41:51.589Z,0.00
2019-04-06T02:42:51.926Z,0.00
2019-04-06T02:43:51.951Z,0.00
2019-04-06T02:44:52.150Z,0.00
2019-04-06T02:45:52.410Z,0.00
2019-04-06T02:46:52.522Z,0.00
2019-04-06T02:47:52.701Z,0.00
2019-04-06T02:48:52.892Z,0.00
2019-04-06T02:49:53.159Z,0.00
2019-04-06T02:50:53.272Z,0.00
2019-04-06T02:51:53.466Z,0.00
2019-04-06T02:52:53.642Z,0.00
2019-04-06T02:53:53.825Z,0.00
2019-04-06T02:54:54.010Z,0.00
2019-04-06T02:55:54.194Z,0.00
2019-04-06T02:56:54.376Z,0.00
2019-04-06T02:57:54.560Z,0.00
2019-04-06T02:58:54.780Z,0.00
2019-04-06T02:59:54.936Z,0.00
2019-04-06T03:00:55.129Z,0.00
2019-04-06T03:01:55.305Z,0.00
2019-04-06T03:02:55.487Z,0.00
2019-04-06T03:03:55.680Z,0.00
2019-04-06T03:04:55.861Z,0.00
2019-04-06T03:05:56.049Z,0.00
2019-04-06T03:06:56.231Z,0.00
2019-04-06T03:07:56.438Z,0.00
2019-04-06T03:08:56.774Z,0.00
2019-04-06T03:09:56.794Z,0.00
2019-04-06T03:10:57.009Z,0.00
2019-04-06T03:11:57.290Z,0.00
2019-04-06T03:12:57.353Z,0.00
2019-04-06T03:13:57.532Z,0.00
2019-04-06T03:14:57.724Z,0.00
2019-04-06T03:15:58.619Z,0.00
2019-04-06T03:16:58.189Z,0.00
2019-04-06T03:17:58.239Z,0.00
2019-04-06T03:18:58.412Z,0.00
2019-04-06T03:19:58.602Z,0.00
2019-04-06T03:20:58.787Z,0.00
2019-04-06T03:21:58.977Z,0.00
2019-04-06T03:22:59.161Z,0.00
2019-04-06T03:23:59.342Z,0.00
2019-04-06T03:24:59.531Z,0.00
2019-04-06T03:25:59.711Z,0.00
2019-04-06T03:27:02.650Z,0.00
2019-04-06T03:28:00.092Z,0.00
2019-04-06T03:29:00.283Z,0.00
2019-04-06T03:30:00.476Z,0.00
2019-04-06T03:31:00.869Z,0.00
2019-04-06T03:32:00.850Z,0.00
2019-04-06T03:33:01.145Z,0.00
2019-04-06T03:34:01.259Z,0.00
2019-04-06T03:35:01.415Z,0.00
2019-04-06T03:36:01.588Z,0.00
2019-04-06T03:37:01.772Z,0.00
2019-04-06T03:38:01.954Z,0.00
2019-04-06T03:39:02.145Z,0.00
2019-04-06T03:40:02.336Z,0.00
2019-04-06T03:41:02.532Z,0.00
2019-04-06T03:42:02.818Z,0.00
2019-04-06T03:43:02.907Z,0.00
2019-04-06T03:44:03.080Z,0.00
2019-04-06T03:45:03.262Z,0.00
2019-04-06T03:46:03.445Z,0.00
2019-04-06T03:47:03.631Z,0.00
2019-04-06T03:48:03.817Z,0.00
2019-04-06T03:49:04.230Z,0.00
2019-04-06T03:50:04.183Z,0.00
2019-04-06T03:51:04.367Z,0.00
2019-04-06T03:52:04.554Z,0.00
2019-04-06T03:53:04.849Z,0.00
2019-04-06T03:54:04.924Z,0.00
2019-04-06T03:55:05.106Z,0.00
2019-04-06T03:56:05.531Z,0.00
2019-04-06T03:57:14.519Z,0.00
2019-04-06T03:58:05.661Z,0.00
2019-04-06T03:59:05.867Z,0.00
2019-04-06T04:00:06.043Z,0.00
2019-04-06T04:01:06.214Z,0.00
2019-04-06T04:02:06.398Z,0.00
2019-04-06T04:03:06.595Z,0.00
2019-04-06T04:04:06.771Z,0.00
2019-04-06T04:05:06.952Z,0.00
2019-04-06T04:06:07.137Z,0.00
2019-04-06T04:07:07.325Z,0.00
2019-04-06T04:08:07.550Z,0.00
2019-04-06T04:09:07.690Z,0.00
2019-04-06T04:10:07.875Z,0.00
2019-04-06T04:11:08.058Z,0.00
2019-04-06T04:12:08.250Z,0.00
2019-04-06T04:13:08.440Z,0.00
2019-04-06T04:14:08.611Z,0.00
2019-04-06T04:15:08.884Z,0.00
2019-04-06T04:16:08.987Z,0.00
2019-04-06T04:17:09.360Z,0.00
2019-04-06T04:18:09.367Z,0.00
2019-04-06T04:19:09.557Z,0.00
2019-04-06T04:20:09.747Z,0.00
2019-04-06T04:21:09.928Z,0.00
2019-04-06T04:22:10.188Z,0.00
2019-04-06T04:23:10.298Z,0.00
2019-04-06T04:24:10.489Z,0.00
2019-04-06T04:25:10.659Z,0.00
2019-04-06T04:26:10.878Z,0.00
2019-04-06T04:27:11.043Z,0.00
2019-04-06T04:28:11.229Z,0.00
2019-04-06T04:29:11.427Z,0.00
2019-04-06T04:30:11.595Z,0.00
2019-04-06T04:31:11.775Z,0.00
2019-04-06T04:32:11.959Z,0.00
2019-04-06T04:33:12.147Z,0.00
2019-04-06T04:34:12.331Z,0.00
2019-04-06T04:35:12.521Z,0.00
2019-04-06T04:36:12.702Z,0.00
2019-04-06T04:37:12.950Z,0.00
2019-04-06T04:38:13.069Z,0.00
2019-04-06T04:39:13.258Z,0.00
2019-04-06T04:40:13.441Z,0.00
2019-04-06T04:41:13.627Z,0.00
2019-04-06T04:42:13.814Z,0.00
2019-04-06T04:43:13.997Z,0.00
2019-04-06T04:44:14.207Z,0.00
2019-04-06T04:45:14.573Z,0.00
2019-04-06T04:46:14.557Z,5.63
2019-04-06T04:47:14.739Z,5.63
2019-04-06T04:48:14.923Z,5.63
2019-04-06T04:49:15.109Z,5.63
2019-04-06T04:50:15.299Z,5.63
2019-04-06T04:51:15.488Z,5.63
2019-04-06T04:52:15.671Z,5.63
2019-04-06T04:53:15.858Z,11.25
2019-04-06T04:54:16.093Z,11.25
2019-04-06T04:55:16.231Z,11.25
2019-04-06T04:56:16.559Z,11.25
2019-04-06T04:57:16.605Z,11.25
2019-04-06T04:58:16.790Z,11.25
2019-04-06T04:59:16.982Z,16.88
2019-04-06T05:00:17.165Z,16.88
2019-04-06T05:01:17.352Z,16.88
2019-04-06T05:02:17.539Z,16.88
2019-04-06T05:03:17.892Z,16.88
2019-04-06T05:04:17.909Z,22.50
2019-04-06T05:05:18.101Z,22.50
2019-04-06T05:06:18.287Z,22.50
2019-04-06T05:07:18.476Z,28.13
2019-04-06T05:08:18.659Z,28.13
2019-04-06T05:09:18.851Z,28.13
2019-04-06T05:10:19.102Z,28.13
2019-04-06T05:11:19.223Z,33.75
2019-04-06T05:12:19.409Z,33.75
2019-04-06T05:13:19.590Z,33.75
2019-04-06T05:14:19.778Z,33.75
2019-04-06T05:15:19.987Z,39.38
2019-04-06T05:16:20.189Z,33.75
2019-04-06T05:17:20.376Z,33.75
2019-04-06T05:18:20.568Z,33.75
2019-04-06T05:19:20.758Z,39.38
2019-04-06T05:20:20.958Z,39.38
2019-04-06T05:21:21.155Z,39.38
2019-04-06T05:22:21.472Z,45.00
2019-04-06T05:23:21.529Z,50.63
2019-04-06T05:24:21.867Z,50.63
2019-04-06T05:25:22.000Z,56.25
2019-04-06T05:26:22.159Z,56.25
2019-04-06T05:27:22.264Z,61.88
2019-04-06T05:28:22.457Z,67.50
2019-04-06T05:29:22.642Z,84.38
2019-04-06T05:30:22.831Z,84.38
2019-04-06T05:31:23.015Z,101.25
2019-04-06T05:32:23.197Z,112.50
2019-04-06T05:33:23.388Z,123.75
2019-04-06T05:34:23.575Z,151.88
2019-04-06T05:35:23.909Z,163.13
2019-04-06T05:36:23.955Z,174.38
2019-04-06T05:37:24.139Z,185.63
2019-04-06T05:38:24.332Z,208.13
2019-04-06T05:39:24.531Z,236.25
2019-04-06T05:40:24.713Z,258.75
2019-04-06T05:41:24.899Z,275.63
2019-04-06T05:42:25.086Z,281.25
2019-04-06T05:43:25.276Z,275.63
2019-04-06T05:44:25.459Z,286.88
2019-04-06T05:45:25.642Z,303.75
2019-04-06T05:46:25.830Z,303.75
2019-04-06T05:47:26.013Z,275.63
2019-04-06T05:48:26.200Z,247.50
2019-04-06T05:49:26.386Z,241.88
2019-04-06T05:50:26.573Z,225.00
2019-04-06T05:51:26.757Z,225.00
2019-04-06T05:52:27.102Z,225.00
2019-04-06T05:53:27.141Z,225.00
2019-04-06T05:54:27.337Z,236.25
2019-04-06T05:55:27.521Z,241.88
2019-04-06T05:56:27.705Z,241.88
2019-04-06T05:57:31.605Z,236.25
2019-04-06T05:58:28.242Z,236.25
2019-04-06T05:59:28.299Z,225.00
2019-04-06T06:00:28.781Z,225.00
2019-04-06T06:01:28.677Z,219.38
2019-04-06T06:02:28.819Z,213.75
2019-04-06T06:03:29.015Z,213.75
2019-04-06T06:04:29.208Z,219.38
2019-04-06T06:05:29.394Z,219.38
2019-04-06T06:06:29.606Z,219.38
2019-04-06T06:07:29.769Z,213.75
2019-04-06T06:08:30.604Z,202.50
2019-04-06T06:09:30.156Z,185.63
2019-04-06T06:10:30.338Z,191.25
2019-04-06T06:11:30.676Z,202.50
2019-04-06T06:12:30.716Z,202.50
2019-04-06T06:13:30.906Z,196.88
2019-04-06T06:14:31.093Z,208.13
2019-04-06T06:15:31.275Z,219.38
2019-04-06T06:16:31.529Z,213.75
2019-04-06T06:17:31.649Z,208.13
2019-04-06T06:18:31.837Z,213.75
2019-04-06T06:19:32.025Z,230.63
2019-04-06T06:20:32.359Z,241.88
2019-04-06T06:21:32.391Z,241.88
2019-04-06T06:22:32.569Z,236.25
2019-04-06T06:23:32.754Z,247.50
2019-04-06T06:24:34.737Z,258.75
2019-04-06T06:25:33.132Z,286.88
2019-04-06T06:26:33.330Z,286.88
2019-04-06T06:27:33.759Z,270.00
2019-04-06T06:28:33.844Z,258.75
2019-04-06T06:29:33.893Z,253.13
2019-04-06T06:30:34.133Z,253.13
2019-04-06T06:31:34.259Z,258.75
2019-04-06T06:32:34.443Z,270.00
2019-04-06T06:33:34.632Z,270.00
2019-04-06T06:34:34.824Z,270.00
2019-04-06T06:35:35.009Z,264.38
2019-04-06T06:36:35.425Z,281.25
2019-04-06T06:37:35.387Z,286.88
2019-04-06T06:38:35.573Z,281.25
2019-04-06T06:39:35.753Z,286.88
2019-04-06T06:40:35.957Z,298.13
2019-04-06T06:41:36.138Z,292.50
2019-04-06T06:42:36.317Z,286.88
2019-04-06T06:43:36.512Z,292.50
2019-04-06T06:44:36.741Z,281.25
2019-04-06T06:45:36.931Z,286.88
2019-04-06T06:46:37.064Z,292.50
2019-04-06T06:47:37.251Z,298.13
2019-04-06T06:48:37.630Z,326.25
2019-04-06T06:49:37.755Z,360.00
2019-04-06T06:50:37.831Z,388.13
2019-04-06T06:51:38.028Z,433.13
2019-04-06T06:52:38.250Z,438.75
2019-04-06T06:53:38.415Z,421.88
2019-04-06T06:54:38.622Z,433.13
2019-04-06T06:55:38.965Z,489.38
2019-04-06T06:56:38.976Z,556.88
2019-04-06T06:57:39.505Z,590.63
2019-04-06T06:58:39.354Z,573.75
2019-04-06T06:59:39.534Z,568.13
2019-04-06T07:00:39.718Z,601.88
2019-04-06T07:01:39.910Z,697.50
2019-04-06T07:02:40.101Z,759.38
2019-04-06T07:03:40.282Z,765.00
2019-04-06T07:04:40.466Z,714.38
2019-04-06T07:05:40.662Z,675.00
2019-04-06T07:06:40.856Z,680.63
2019-04-06T07:07:41.040Z,703.13
2019-04-06T07:08:41.286Z,810.00
2019-04-06T07:09:41.417Z,720.00
2019-04-06T07:10:41.612Z,641.25
2019-04-06T07:11:41.804Z,641.25
2019-04-06T07:12:42.004Z,646.88
2019-04-06T07:13:42.200Z,646.88
2019-04-06T07:14:42.375Z,646.88
2019-04-06T07:15:43.460Z,680.63
2019-04-06T07:16:42.748Z,708.75
2019-04-06T07:17:42.943Z,697.50
2019-04-06T07:18:43.133Z,686.25
2019-04-06T07:19:43.336Z,675.00
2019-04-06T07:20:43.537Z,669.38
2019-04-06T07:21:43.719Z,663.75
2019-04-06T07:22:43.913Z,708.75
2019-04-06T07:23:44.093Z,793.13
2019-04-06T07:24:44.278Z,838.13
2019-04-06T07:25:51.805Z,798.75
2019-04-06T07:26:44.665Z,753.75
2019-04-06T07:27:44.852Z,675.00
2019-04-06T07:28:45.039Z,675.00
2019-04-06T07:29:45.233Z,697.50
2019-04-06T07:30:45.535Z,697.50
2019-04-06T07:31:45.604Z,669.38
2019-04-06T07:32:45.821Z,646.88
2019-04-06T07:33:45.977Z,641.25
2019-04-06T07:34:46.164Z,590.63
2019-04-06T07:35:46.352Z,551.25
2019-04-06T07:36:46.703Z,540.00
2019-04-06T07:37:46.729Z,540.00
2019-04-06T07:38:46.932Z,534.38
2019-04-06T07:39:47.125Z,523.13
2019-04-06T07:40:47.317Z,556.88
2019-04-06T07:41:47.511Z,618.75
2019-04-06T07:42:47.904Z,675.00
2019-04-06T07:43:48.116Z,725.63
2019-04-06T07:44:48.090Z,793.13
2019-04-06T07:45:48.273Z,793.13
2019-04-06T07:46:48.464Z,748.13
2019-04-06T07:47:48.668Z,720.00
2019-04-06T07:48:48.873Z,703.13
2019-04-06T07:49:49.046Z,714.38
2019-04-06T07:50:49.370Z,703.13
2019-04-06T07:51:49.427Z,680.63
2019-04-06T07:52:49.863Z,646.88
2019-04-06T07:53:49.814Z,652.50
2019-04-06T07:54:50.001Z,658.13
2019-04-06T07:55:50.356Z,691.88
2019-04-06T07:56:50.408Z,686.25
2019-04-06T07:57:50.822Z,742.50
2019-04-06T07:58:50.796Z,787.50
2019-04-06T07:59:50.989Z,804.38
2019-04-06T08:00:51.351Z,849.38
2019-04-06T08:01:51.371Z,905.63
2019-04-06T08:02:51.549Z,1074.38
2019-04-06T08:03:51.739Z,1209.38
2019-04-06T08:04:51.929Z,1074.38
2019-04-06T08:05:52.314Z,1040.63
2019-04-06T08:06:52.539Z,1046.25
2019-04-06T08:07:52.475Z,1125.00
2019-04-06T08:08:52.680Z,1366.88
2019-04-06T08:09:53.029Z,1406.25
2019-04-06T08:10:53.070Z,1321.88
2019-04-06T08:11:53.291Z,1361.25
2019-04-06T08:12:53.456Z,1586.25
2019-04-06T08:13:53.880Z,1636.88
2019-04-06T08:14:53.846Z,1755.00
2019-04-06T08:15:54.320Z,2559.38
2019-04-06T08:16:54.360Z,3335.63
2019-04-06T08:17:54.415Z,4432.50
2019-04-06T08:18:54.598Z,3825.00
2019-04-06T08:19:54.797Z,4708.13
2019-04-06T08:20:54.993Z,4516.88
2019-04-06T08:21:55.177Z,4353.75
2019-04-06T08:22:55.428Z,4995.00
2019-04-06T08:23:55.566Z,4353.75
2019-04-06T08:24:55.779Z,5343.75
2019-04-06T08:25:56.361Z,5613.75
2019-04-06T08:26:56.177Z,5664.38
2019-04-06T08:27:56.387Z,5681.25
2019-04-06T08:29:01.521Z,5658.75
2019-04-06T08:29:56.790Z,5703.75
2019-04-06T08:30:56.975Z,5765.63
2019-04-06T08:31:57.174Z,5788.13
2019-04-06T08:32:57.591Z,5940.00
2019-04-06T08:33:57.572Z,6007.50
2019-04-06T08:34:57.883Z,6041.25
2019-04-06T08:35:57.990Z,6075.00
2019-04-06T08:36:58.160Z,6091.88
2019-04-06T08:37:58.359Z,6097.50
2019-04-06T08:38:58.575Z,6108.75
2019-04-06T08:39:58.763Z,6148.13
2019-04-06T08:40:58.974Z,6148.13
2019-04-06T08:41:59.158Z,6120.00
2019-04-06T08:42:59.356Z,6103.13
2019-04-06T08:43:59.557Z,6125.63
2019-04-06T08:45:00.012Z,6198.75
2019-04-06T08:45:59.960Z,6266.25
2019-04-06T08:47:00.167Z,6249.38
2019-04-06T08:48:00.360Z,6243.75
2019-04-06T08:49:00.563Z,6249.38
2019-04-06T08:50:00.768Z,6238.13
2019-04-06T08:51:01.117Z,6238.13
2019-04-06T08:52:01.177Z,6198.75
2019-04-06T08:53:01.383Z,6210.00
2019-04-06T08:54:01.601Z,6187.50
2019-04-06T08:55:01.902Z,6142.50
2019-04-06T08:56:02.003Z,6114.38
2019-04-06T08:57:02.202Z,6052.50
2019-04-06T08:58:02.403Z,6097.50
2019-04-06T08:59:11.536Z,6080.63
2019-04-06T09:00:02.810Z,6058.13
2019-04-06T09:01:03.013Z,6136.88
2019-04-06T09:02:03.251Z,6120.00
2019-04-06T09:03:03.856Z,6165.00
2019-04-06T09:04:03.631Z,6075.00
2019-04-06T09:05:03.918Z,6120.00
2019-04-06T09:06:04.016Z,6063.75
2019-04-06T09:07:04.224Z,6114.38
2019-04-06T09:08:04.424Z,6131.25
2019-04-06T09:09:04.632Z,6204.38
2019-04-06T09:10:04.845Z,6193.13
2019-04-06T09:11:05.046Z,6125.63
2019-04-06T09:12:05.246Z,6221.25
2019-04-06T09:13:05.459Z,6221.25
2019-04-06T09:14:05.915Z,6232.50
2019-04-06T09:15:05.877Z,6120.00
2019-04-06T09:16:06.309Z,6080.63
2019-04-06T09:17:06.277Z,6114.38
2019-04-06T09:18:06.492Z,6165.00
2019-04-06T09:19:06.723Z,6193.13
2019-04-06T09:20:06.912Z,6210.00
2019-04-06T09:21:07.111Z,6204.38
2019-04-06T09:22:07.316Z,6142.50
2019-04-06T09:23:07.521Z,6176.25
2019-04-06T09:24:07.725Z,6271.88
2019-04-06T09:25:07.933Z,6165.00
2019-04-06T09:26:08.131Z,6232.50
2019-04-06T09:27:08.331Z,6193.13
2019-04-06T09:28:08.533Z,6249.38
2019-04-06T09:29:08.819Z,6159.38
2019-04-06T09:30:09.134Z,6091.88
2019-04-06T09:31:09.153Z,6238.13
2019-04-06T09:32:09.596Z,6226.88
2019-04-06T09:33:09.560Z,6170.63
2019-04-06T09:34:09.777Z,6131.25
2019-04-06T09:35:10.187Z,6063.75
2019-04-06T09:36:10.181Z,6001.88
2019-04-06T09:37:10.383Z,5979.38
2019-04-06T09:38:10.588Z,5945.63
2019-04-06T09:39:10.794Z,5861.25
2019-04-06T09:40:10.980Z,5821.88
2019-04-06T09:41:11.189Z,5692.50
2019-04-06T09:42:11.392Z,5641.88
2019-04-06T09:43:11.596Z,5703.75
2019-04-06T09:44:11.799Z,5675.63
2019-04-06T09:45:12.008Z,5720.63
2019-04-06T09:46:12.204Z,5726.25
2019-04-06T09:47:12.398Z,5647.50
2019-04-06T09:48:12.819Z,5478.75
2019-04-06T09:49:12.800Z,5355.00
2019-04-06T09:50:13.006Z,5231.25
2019-04-06T09:51:13.213Z,5118.75
2019-04-06T09:52:13.412Z,4916.25
2019-04-06T09:53:13.619Z,4775.63
2019-04-06T09:54:13.817Z,4668.75
2019-04-06T09:55:14.147Z,4640.63
2019-04-06T09:56:14.232Z,4584.38
2019-04-06T09:57:14.436Z,4500.00
2019-04-06T09:58:14.637Z,4477.50
2019-04-06T09:59:14.831Z,4443.75
2019-04-06T10:00:15.146Z,4443.75
2019-04-06T10:01:15.236Z,4438.13
2019-04-06T10:02:15.682Z,4494.38
2019-04-06T10:03:15.650Z,4471.88
2019-04-06T10:04:15.842Z,4505.63
2019-04-06T10:05:16.050Z,4500.00
2019-04-06T10:06:16.262Z,4488.75
2019-04-06T10:07:16.450Z,4545.00
2019-04-06T10:08:16.660Z,4556.25
2019-04-06T10:09:16.861Z,4550.63
2019-04-06T10:10:17.196Z,4511.25
2019-04-06T10:11:17.264Z,4511.25
2019-04-06T10:12:17.822Z,4477.50
2019-04-06T10:13:17.667Z,4505.63
2019-04-06T10:14:17.875Z,4455.00
2019-04-06T10:15:18.074Z,4381.88
2019-04-06T10:16:18.280Z,4387.50
2019-04-06T10:17:18.484Z,4353.75
2019-04-06T10:18:18.678Z,4353.75
2019-04-06T10:19:18.974Z,4291.88
2019-04-06T10:20:19.084Z,4280.63
2019-04-06T10:21:19.508Z,4376.25
2019-04-06T10:22:19.580Z,4342.50
2019-04-06T10:23:19.691Z,4336.88
2019-04-06T10:24:19.888Z,4376.25
2019-04-06T10:25:20.097Z,4449.38
2019-04-06T10:26:20.526Z,4466.25
2019-04-06T10:27:20.507Z,4528.13
2019-04-06T10:28:20.707Z,4646.25
2019-04-06T10:29:20.912Z,4798.13
2019-04-06T10:30:21.123Z,4848.75
2019-04-06T10:31:21.317Z,4899.38
2019-04-06T10:32:21.516Z,5017.50
2019-04-06T10:33:21.724Z,5163.75
2019-04-06T10:34:22.091Z,5315.63
2019-04-06T10:35:22.130Z,5338.13
2019-04-06T10:36:22.547Z,2660.63
2019-04-06T10:37:22.538Z,5377.50
2019-04-06T10:38:22.735Z,5355.00
2019-04-06T10:39:23.056Z,5338.13
2019-04-06T10:40:23.306Z,5326.88
2019-04-06T10:41:23.334Z,5383.13
2019-04-06T10:42:23.867Z,5236.88
2019-04-06T10:43:23.865Z,5287.50
2019-04-06T10:44:23.941Z,3870.00
2019-04-06T10:45:24.136Z,3301.88
2019-04-06T10:46:24.341Z,4978.13
2019-04-06T10:47:24.539Z,4899.38
2019-04-06T10:48:24.744Z,5000.63
2019-04-06T10:49:24.960Z,4989.38
2019-04-06T10:50:25.148Z,4972.50
2019-04-06T10:51:25.345Z,4848.75
2019-04-06T10:52:25.555Z,4725.00
2019-04-06T10:53:26.078Z,4741.88
2019-04-06T10:54:25.958Z,2176.88
2019-04-06T10:55:26.159Z,3183.75
2019-04-06T10:56:26.356Z,1901.25
2019-04-06T10:57:26.565Z,4477.50
2019-04-06T10:58:26.763Z,4488.75
2019-04-06T10:59:26.970Z,4623.75
2019-04-06T11:00:27.189Z,4651.88
2019-04-06T11:01:27.397Z,4606.88
2019-04-06T11:02:27.783Z,4590.00
2019-04-06T11:03:27.801Z,4601.25
2019-04-06T11:04:28.002Z,4635.00
2019-04-06T11:05:28.211Z,4685.63
2019-04-06T11:06:28.417Z,4786.88
2019-04-06T11:07:28.620Z,4612.50
2019-04-06T11:08:28.987Z,3706.88
2019-04-06T11:09:29.289Z,4421.25
2019-04-06T11:10:29.225Z,4477.50
2019-04-06T11:11:29.424Z,4477.50
2019-04-06T11:12:29.629Z,4494.38
2019-04-06T11:13:29.832Z,4460.63
2019-04-06T11:14:30.249Z,4477.50
2019-04-06T11:15:30.432Z,4533.75
2019-04-06T11:16:30.442Z,4528.13
2019-04-06T11:17:30.642Z,4421.25
2019-04-06T11:18:30.845Z,4415.63
2019-04-06T11:19:31.043Z,4365.00
2019-04-06T11:20:31.241Z,4410.00
2019-04-06T11:21:31.445Z,4432.50
2019-04-06T11:22:31.642Z,4381.88
2019-04-06T11:23:32.083Z,4336.88
2019-04-06T11:24:32.041Z,4359.38
2019-04-06T11:25:32.237Z,4410.00
2019-04-06T11:26:32.444Z,4376.25
2019-04-06T11:27:32.650Z,4235.63
2019-04-06T11:28:32.853Z,4168.13
2019-04-06T11:29:33.087Z,4151.25
2019-04-06T11:30:33.252Z,4111.88
2019-04-06T11:31:33.450Z,4083.75
2019-04-06T11:32:33.651Z,4010.63
2019-04-06T11:33:33.849Z,3943.13
2019-04-06T11:34:34.048Z,3886.88
2019-04-06T11:35:34.561Z,3864.38
2019-04-06T11:36:34.457Z,3875.63
2019-04-06T11:37:34.659Z,3858.75
2019-04-06T11:38:34.857Z,3808.13
2019-04-06T11:39:35.066Z,3751.88
2019-04-06T11:40:35.265Z,3802.50
2019-04-06T11:41:35.473Z,3791.25
2019-04-06T11:42:35.795Z,3802.50
2019-04-06T11:43:35.866Z,3791.25
2019-04-06T11:44:36.156Z,3718.13
2019-04-06T11:45:36.280Z,3690.00
2019-04-06T11:46:36.472Z,3521.25
2019-04-06T11:47:36.702Z,2722.50
2019-04-06T11:48:36.895Z,1856.25
2019-04-06T11:49:37.198Z,1541.25
2019-04-06T11:50:37.283Z,1530.00
2019-04-06T11:51:37.596Z,1518.75
2019-04-06T11:52:37.697Z,1513.13
2019-04-06T11:53:37.901Z,1501.88
2019-04-06T11:54:38.104Z,1501.88
2019-04-06T11:55:38.382Z,1501.88
2019-04-06T11:56:38.506Z,1507.50
2019-04-06T11:57:38.707Z,1518.75
2019-04-06T11:58:38.936Z,1535.63
2019-04-06T11:59:39.153Z,1552.50
2019-04-06T12:00:39.302Z,1558.13
2019-04-06T12:01:39.504Z,1546.88
2019-04-06T12:02:39.900Z,1558.13
2019-04-06T12:03:39.911Z,1546.88
2019-04-06T12:04:40.336Z,1535.63
2019-04-06T12:05:40.325Z,1546.88
2019-04-06T12:06:40.506Z,1586.25
2019-04-06T12:07:41.073Z,1620.00
2019-04-06T12:08:40.896Z,1642.50
2019-04-06T12:09:41.098Z,1670.63
2019-04-06T12:10:41.344Z,1653.75
2019-04-06T12:11:41.514Z,1530.00
2019-04-06T12:12:41.652Z,1417.50
2019-04-06T12:13:41.861Z,1288.13
2019-04-06T12:14:42.044Z,1091.25
2019-04-06T12:15:42.248Z,1141.88
2019-04-06T12:16:42.456Z,1276.88
2019-04-06T12:17:42.653Z,1490.63
2019-04-06T12:18:42.909Z,1490.63
2019-04-06T12:19:43.062Z,1231.88
2019-04-06T12:20:43.255Z,1260.00
2019-04-06T12:21:43.440Z,1220.63
2019-04-06T12:22:43.693Z,1406.25
2019-04-06T12:23:43.848Z,1361.25
2019-04-06T12:24:44.047Z,1170.00
2019-04-06T12:25:44.245Z,1141.88
2019-04-06T12:26:44.436Z,1198.13
2019-04-06T12:27:44.638Z,1220.63
2019-04-06T12:28:44.857Z,1288.13
2019-04-06T12:29:45.237Z,1462.50
2019-04-06T12:30:45.223Z,1440.00
2019-04-06T12:31:45.485Z,1383.75
2019-04-06T12:32:45.644Z,1406.25
2019-04-06T12:33:45.837Z,1338.75
2019-04-06T12:34:46.116Z,1203.75
2019-04-06T12:35:46.219Z,1057.50
2019-04-06T12:36:46.547Z,1136.25
2019-04-06T12:37:46.628Z,1113.75
2019-04-06T12:38:46.874Z,1164.38
2019-04-06T12:39:53.025Z,1198.13
2019-04-06T12:40:47.208Z,1164.38
2019-04-06T12:41:47.400Z,1085.63